createdAt,value
2022-08-24T00:02:02.571Z,21.72
2022-08-24T00:07:05.949Z,21.68
2022-08-24T00:12:18.511Z,21.51
2022-08-24T00:17:21.373Z,21.47
2022-08-24T00:22:24.032Z,21.39
2022-08-24T00:27:28.127Z,21.46
2022-08-24T00:32:30.759Z,21.33
2022-08-24T00:37:34.146Z,21.19
2022-08-24T00:42:38.843Z,21.25
2022-08-24T00:47:47.809Z,21.23
2022-08-24T00:52:52.713Z,21.09
2022-08-24T00:58:01.032Z,21.12
2022-08-24T01:03:06.838Z,20.94
2022-08-24T01:08:12.199Z,21.08
2022-08-24T01:13:17.273Z,21.04
2022-08-24T01:18:39.685Z,20.73
2022-08-24T01:23:45.439Z,20.82
2022-08-24T01:28:51.989Z,20.59
2022-08-24T01:33:56.621Z,20.73
2022-08-24T01:39:05.401Z,20.73
2022-08-24T01:44:08.422Z,20.67
2022-08-24T01:49:11.734Z,20.64
2022-08-24T01:54:16.746Z,20.56
2022-08-24T01:59:20.232Z,20.46
2022-08-24T02:04:23.426Z,20.40
2022-08-24T02:09:32.678Z,20.30
2022-08-24T02:14:37.596Z,20.41
2022-08-24T02:19:40.360Z,20.36
2022-08-24T02:24:44.945Z,20.18
2022-08-24T02:29:47.685Z,20.12
2022-08-24T02:34:50.434Z,20.15
2022-08-24T02:39:58.850Z,20.00
2022-08-24T02:45:02.765Z,20.00
2022-08-24T02:50:06.860Z,20.00
2022-08-24T02:55:13.921Z,20.11
2022-08-24T03:00:19.269Z,19.99
2022-08-24T03:05:28.449Z,19.95
2022-08-24T03:10:33.190Z,19.94
2022-08-24T03:15:36.520Z,19.79
2022-08-24T03:20:39.691Z,19.82
2022-08-24T03:25:44.467Z,19.74
2022-08-24T03:30:48.213Z,19.71
2022-08-24T03:35:52.412Z,19.65
2022-08-24T03:40:58.961Z,19.60
2022-08-24T03:46:02.959Z,19.64
2022-08-24T03:51:06.029Z,19.58
2022-08-24T03:56:10.861Z,19.55
2022-08-24T04:01:14.074Z,19.47
2022-08-24T04:06:19.200Z,19.32
2022-08-24T04:11:25.072Z,19.36
2022-08-24T04:16:28.973Z,19.39
2022-08-24T04:21:44.458Z,19.23
2022-08-24T04:26:49.613Z,19.27
2022-08-24T04:31:53.447Z,19.16
2022-08-24T04:36:56.969Z,19.23
2022-08-24T04:42:03.182Z,18.99
2022-08-24T04:47:10.934Z,19.13
2022-08-24T04:52:14.600Z,19.42
2022-08-24T04:57:20.040Z,19.24
2022-08-24T05:02:24.407Z,19.34
2022-08-24T05:07:29.885Z,19.05
2022-08-24T05:12:34.297Z,19.23
2022-08-24T05:17:41.402Z,19.48
2022-08-24T05:22:46.497Z,19.65
2022-08-24T05:27:51.547Z,19.52
2022-08-24T05:32:54.416Z,19.84
2022-08-24T05:37:57.191Z,19.87
2022-08-24T05:43:08.961Z,20.07
2022-08-24T05:48:11.905Z,20.11
2022-08-24T05:53:33.545Z,20.09
2022-08-24T05:58:40.314Z,20.45
2022-08-24T06:03:43.328Z,20.32
2022-08-24T06:08:50.309Z,20.54
2022-08-24T06:13:55.540Z,20.60
2022-08-24T06:19:03.328Z,20.78
2022-08-24T06:24:06.579Z,20.77
2022-08-24T06:29:11.337Z,20.88
2022-08-24T06:34:20.431Z,20.92
2022-08-24T06:39:24.211Z,21.03
2022-08-24T06:44:31.838Z,21.28
2022-08-24T06:49:42.749Z,21.45
2022-08-24T06:54:45.677Z,21.60
2022-08-24T06:59:50.396Z,21.76
2022-08-24T07:04:54.994Z,21.91
2022-08-24T07:10:16.063Z,22.21
2022-08-24T07:15:20.873Z,22.32
2022-08-24T07:20:34.944Z,22.63
2022-08-24T07:25:49.606Z,22.81
2022-08-24T07:30:56.920Z,23.13
2022-08-24T07:36:00.338Z,23.37
2022-08-24T07:41:36.525Z,23.43
2022-08-24T07:46:28.532Z,23.57
2022-08-24T07:56:36.043Z,23.92
2022-08-24T08:01:40.781Z,24.21
2022-08-24T08:06:45.888Z,24.27
2022-08-24T08:11:49.291Z,24.62
2022-08-24T08:16:53.588Z,24.78
2022-08-24T08:22:13.615Z,24.77
2022-08-24T08:27:36.675Z,25.09
2022-08-24T08:32:41.575Z,25.13
2022-08-24T08:37:44.732Z,25.36
2022-08-24T08:43:06.331Z,25.23
2022-08-24T08:48:34.329Z,25.49
2022-08-24T08:54:09.384Z,25.81
2022-08-24T08:59:21.153Z,25.85
2022-08-24T09:04:51.492Z,25.82
2022-08-24T09:10:19.028Z,26.22
2022-08-24T09:15:39.452Z,26.26
2022-08-24T09:20:57.754Z,26.42
2022-08-24T09:26:04.969Z,26.47
2022-08-24T09:31:39.763Z,26.69
2022-08-24T09:36:54.127Z,26.82
2022-08-24T09:42:29.122Z,27.08
2022-08-24T09:47:49.320Z,27.18
2022-08-24T09:53:21.006Z,27.20
2022-08-24T09:58:32.637Z,27.28
2022-08-24T10:03:55.118Z,27.48
2022-08-24T10:09:15.907Z,27.67
2022-08-24T10:14:38.432Z,28.03
2022-08-24T10:19:49.116Z,28.21
2022-08-24T10:25:18.346Z,28.08
2022-08-24T10:30:42.180Z,28.36
2022-08-24T10:35:56.702Z,28.30
2022-08-24T10:41:19.564Z,28.32
2022-08-24T10:46:40.457Z,28.88
2022-08-24T10:51:54.709Z,28.93
2022-08-24T10:57:09.183Z,29.35
2022-08-24T11:02:31.457Z,29.42
2022-08-24T11:07:34.309Z,29.48
2022-08-24T11:12:41.823Z,29.63
2022-08-24T11:17:56.508Z,29.65
2022-08-24T11:23:03.255Z,29.69
2022-08-24T11:28:10.989Z,29.96
2022-08-24T11:33:27.473Z,29.91
2022-08-24T11:38:35.016Z,30.20
2022-08-24T11:43:52.923Z,30.46
2022-08-24T11:49:04.804Z,30.56
2022-08-24T11:54:13.156Z,30.90
2022-08-24T11:59:22.233Z,30.95
2022-08-24T12:04:39.497Z,30.68
2022-08-24T12:09:54.894Z,30.98
2022-08-24T12:15:02.113Z,31.43
2022-08-24T12:20:10.709Z,31.39
2022-08-24T12:25:27.927Z,31.85
2022-08-24T12:30:32.245Z,31.56
2022-08-24T12:35:38.101Z,31.70
2022-08-24T12:40:43.702Z,32.17
2022-08-24T12:45:47.865Z,32.11
2022-08-24T12:51:03.421Z,30.69
2022-08-24T12:56:39.956Z,31.88
2022-08-24T13:01:46.832Z,32.00
2022-08-24T13:06:55.220Z,31.77
2022-08-24T13:12:42.730Z,30.92
2022-08-24T13:17:46.849Z,32.36
2022-08-24T13:23:04.538Z,31.81
2022-08-24T13:28:09.957Z,31.76
2022-08-24T13:33:17.720Z,32.59
2022-08-24T13:38:34.135Z,32.52
2022-08-24T13:43:39.813Z,32.34
2022-08-24T13:48:51.862Z,32.35
2022-08-24T13:54:04.104Z,32.06
2022-08-24T13:59:10.984Z,32.31
2022-08-24T14:04:45.702Z,32.00
2022-08-24T14:09:59.423Z,32.24
2022-08-24T14:15:10.754Z,31.58
2022-08-24T14:20:29.173Z,32.03
2022-08-24T14:25:34.338Z,31.74
2022-08-24T14:30:46.779Z,32.11
2022-08-24T14:36:09.577Z,31.39
2022-08-24T14:41:23.046Z,31.47
2022-08-24T14:46:33.771Z,31.93
2022-08-24T14:51:48.895Z,31.79
2022-08-24T14:57:00.811Z,31.93
2022-08-24T15:02:35.380Z,31.59
2022-08-24T15:07:39.658Z,31.69
2022-08-24T15:12:46.269Z,31.54
2022-08-24T15:17:59.033Z,31.41
2022-08-24T15:23:06.323Z,31.38
2022-08-24T15:28:11.545Z,31.29
2022-08-24T15:33:19.557Z,31.31
2022-08-24T15:38:26.237Z,31.30
2022-08-24T15:43:29.203Z,31.06
2022-08-24T15:48:32.900Z,31.22
2022-08-24T15:53:39.631Z,31.18
2022-08-24T15:58:42.385Z,31.09
2022-08-24T16:03:49.798Z,30.99
2022-08-24T16:09:00.215Z,30.92
2022-08-24T16:14:03.366Z,30.97
2022-08-24T16:19:09.006Z,30.87
2022-08-24T16:24:23.472Z,30.83
2022-08-24T16:29:53.388Z,30.83
2022-08-24T16:35:06.918Z,30.84
2022-08-24T16:40:12.147Z,30.71
2022-08-24T16:45:18.483Z,30.62
2022-08-24T16:50:22.176Z,30.52
2022-08-24T16:55:31.611Z,30.41
2022-08-24T17:00:34.454Z,30.29
2022-08-24T17:05:37.357Z,30.24
2022-08-24T17:10:43.891Z,30.07
2022-08-24T17:15:49.708Z,30.02
2022-08-24T17:20:54.628Z,29.91
2022-08-24T17:25:59.496Z,29.81
2022-08-24T17:31:02.204Z,29.73
2022-08-24T17:36:06.254Z,29.60
2022-08-24T17:41:18.138Z,29.42
2022-08-24T17:46:22.021Z,29.33
2022-08-24T17:51:24.849Z,29.19
2022-08-24T17:56:31.515Z,29.01
2022-08-24T18:01:34.339Z,28.89
2022-08-24T18:06:37.112Z,28.87
2022-08-24T18:11:41.222Z,28.75
2022-08-24T18:16:54.248Z,28.60
2022-08-24T18:22:00.983Z,28.45
2022-08-24T18:27:10.283Z,28.37
2022-08-24T18:32:13.529Z,28.24
2022-08-24T18:37:16.279Z,28.07
2022-08-24T18:42:20.414Z,27.96
2022-08-24T18:47:23.321Z,27.90
2022-08-24T18:52:26.475Z,27.69
2022-08-24T18:57:30.549Z,27.63
2022-08-24T19:02:33.989Z,27.60
2022-08-24T19:07:39.453Z,27.49
2022-08-24T19:12:46.764Z,27.39
2022-08-24T19:17:49.901Z,27.29
2022-08-24T19:22:52.906Z,27.19
2022-08-24T19:27:57.245Z,27.02
2022-08-24T19:33:00.866Z,27.03
2022-08-24T19:38:03.792Z,26.85
2022-08-24T19:43:08.524Z,26.75
2022-08-24T19:48:11.987Z,26.62
2022-08-24T19:53:14.865Z,26.62
2022-08-24T19:58:24.080Z,26.43
2022-08-24T20:03:26.812Z,26.38
2022-08-24T20:08:29.613Z,26.30
2022-08-24T20:13:33.812Z,26.25
2022-08-24T20:18:36.831Z,26.16
2022-08-24T20:23:40.294Z,26.01
2022-08-24T20:28:48.714Z,25.94
2022-08-24T20:33:52.108Z,25.85
2022-08-24T20:38:56.673Z,25.59
2022-08-24T20:44:01.546Z,25.53
2022-08-24T20:49:04.938Z,25.61
2022-08-24T20:54:08.896Z,25.45
2022-08-24T20:59:14.220Z,25.45
2022-08-24T21:04:16.951Z,25.39
2022-08-24T21:09:19.756Z,25.18
2022-08-24T21:14:23.855Z,25.08
2022-08-24T21:19:26.680Z,25.00
2022-08-24T21:24:29.496Z,25.04
2022-08-24T21:29:33.542Z,24.85
2022-08-24T21:34:41.971Z,24.73
2022-08-24T21:39:46.622Z,24.76
2022-08-24T21:44:51.198Z,24.57
2022-08-24T21:49:54.660Z,24.50
2022-08-24T21:54:57.505Z,24.45
2022-08-24T22:00:01.704Z,24.43
2022-08-24T22:05:07.810Z,24.35
2022-08-24T22:10:11.944Z,24.27
2022-08-24T22:15:16.844Z,24.23
2022-08-24T22:20:23.633Z,24.17
2022-08-24T22:25:26.435Z,24.04
2022-08-24T22:30:33.337Z,24.06
2022-08-24T22:35:45.055Z,23.99
2022-08-24T22:40:54.580Z,23.72
2022-08-24T22:45:58.650Z,23.80
2022-08-24T22:51:01.438Z,23.64
2022-08-24T22:56:14.125Z,23.58
2022-08-24T23:01:22.555Z,23.32
2022-08-24T23:06:26.008Z,23.36
2022-08-24T23:11:28.836Z,23.22
2022-08-24T23:16:35.629Z,23.34
2022-08-24T23:21:38.398Z,23.27
2022-08-24T23:26:42.206Z,23.05
2022-08-24T23:31:47.295Z,23.08
2022-08-24T23:36:51.084Z,22.93
2022-08-24T23:41:54.419Z,22.99
2022-08-24T23:46:59.225Z,22.78
2022-08-24T23:52:03.243Z,22.80
2022-08-24T23:57:08.724Z,22.71
